sensor_id;sensor_type;location;lat;lon;timestamp;pressure;altitude;pressure_sealevel;temperature;humidity
61914;BME280;50095;53.336;-1.488;2022-08-23T00:01:55;99468.86;;;22.97;48.51
61914;BME280;50095;53.336;-1.488;2022-08-23T00:04:27;99468.08;;;23.25;48.34
61914;BME280;50095;53.336;-1.488;2022-08-23T00:06:56;99465.46;;;23.02;48.36
61914;BME280;50095;53.336;-1.488;2022-08-23T00:09:26;99463.68;;;22.94;48.53
61914;BME280;50095;53.336;-1.488;2022-08-23T00:12:02;99458.99;;;23.14;48.59
61914;BME280;50095;53.336;-1.488;2022-08-23T00:14:33;99454.59;;;23.14;48.72
61914;BME280;50095;53.336;-1.488;2022-08-23T00:17:00;99457.47;;;23.11;48.88
61914;BME280;50095;53.336;-1.488;2022-08-23T00:19:28;99455.94;;;23.14;49.13
61914;BME280;50095;53.336;-1.488;2022-08-23T00:21:56;99453.65;;;22.85;49.13
61914;BME280;50095;53.336;-1.488;2022-08-23T00:24:24;99453.14;;;23.01;49.34
61914;BME280;50095;53.336;-1.488;2022-08-23T00:26:56;99451.85;;;22.95;49.52
61914;BME280;50095;53.336;-1.488;2022-08-23T00:29:28;99446.04;;;22.74;49.51
61914;BME280;50095;53.336;-1.488;2022-08-23T00:31:57;99449.78;;;22.64;49.27
61914;BME280;50095;53.336;-1.488;2022-08-23T00:34:25;99452.28;;;22.82;49.33
61914;BME280;50095;53.336;-1.488;2022-08-23T00:36:53;99450.71;;;22.99;49.31
61914;BME280;50095;53.336;-1.488;2022-08-23T00:39:21;99449.82;;;22.73;49.84
61914;BME280;50095;53.336;-1.488;2022-08-23T00:41:49;99452.36;;;22.82;49.64
61914;BME280;50095;53.336;-1.488;2022-08-23T00:44:20;99449.40;;;22.79;49.67
61914;BME280;50095;53.336;-1.488;2022-08-23T00:46:53;99450.08;;;22.70;49.84
61914;BME280;50095;53.336;-1.488;2022-08-23T00:49:22;99451.60;;;22.50;49.77
61914;BME280;50095;53.336;-1.488;2022-08-23T00:51:56;99455.68;;;22.64;49.90
61914;BME280;50095;53.336;-1.488;2022-08-23T00:54:26;99460.03;;;22.66;49.83
61914;BME280;50095;53.336;-1.488;2022-08-23T00:56:57;99459.66;;;22.65;49.80
61914;BME280;50095;53.336;-1.488;2022-08-23T00:59:27;99455.43;;;22.36;49.87
61914;BME280;50095;53.336;-1.488;2022-08-23T01:01:54;99456.64;;;22.85;49.86
61914;BME280;50095;53.336;-1.488;2022-08-23T01:04:22;99459.91;;;22.53;49.92
61914;BME280;50095;53.336;-1.488;2022-08-23T01:06:54;99458.26;;;22.58;49.79
61914;BME280;50095;53.336;-1.488;2022-08-23T01:09:25;99455.77;;;22.55;49.80
61914;BME280;50095;53.336;-1.488;2022-08-23T01:11:58;99456.88;;;22.48;49.92
61914;BME280;50095;53.336;-1.488;2022-08-23T01:14:33;99455.58;;;22.50;49.84
61914;BME280;50095;53.336;-1.488;2022-08-23T01:17:05;99449.29;;;22.42;49.97
61914;BME280;50095;53.336;-1.488;2022-08-23T01:19:38;99451.61;;;22.76;49.80
61914;BME280;50095;53.336;-1.488;2022-08-23T01:22:10;99454.63;;;22.49;49.77
61914;BME280;50095;53.336;-1.488;2022-08-23T01:24:41;99459.27;;;22.43;49.87
61914;BME280;50095;53.336;-1.488;2022-08-23T01:27:09;99465.05;;;22.38;49.93
61914;BME280;50095;53.336;-1.488;2022-08-23T01:29:38;99461.47;;;22.73;49.76
61914;BME280;50095;53.336;-1.488;2022-08-23T01:32:06;99464.34;;;22.89;49.86
61914;BME280;50095;53.336;-1.488;2022-08-23T01:34:34;99467.23;;;22.65;49.88
61914;BME280;50095;53.336;-1.488;2022-08-23T01:37:04;99466.85;;;22.57;50.01
61914;BME280;50095;53.336;-1.488;2022-08-23T01:39:32;99465.06;;;22.64;49.89
61914;BME280;50095;53.336;-1.488;2022-08-23T01:42:00;99461.01;;;22.63;49.88
61914;BME280;50095;53.336;-1.488;2022-08-23T01:44:27;99460.92;;;22.39;49.81
61914;BME280;50095;53.336;-1.488;2022-08-23T01:46:55;99461.14;;;22.28;50.01
61914;BME280;50095;53.336;-1.488;2022-08-23T01:49:23;99464.64;;;22.34;49.89
61914;BME280;50095;53.336;-1.488;2022-08-23T01:51:50;99468.48;;;22.63;49.82
61914;BME280;50095;53.336;-1.488;2022-08-23T01:54:18;99468.36;;;22.58;49.90
61914;BME280;50095;53.336;-1.488;2022-08-23T01:56:46;99470.06;;;22.26;49.96
61914;BME280;50095;53.336;-1.488;2022-08-23T01:59:13;99473.68;;;22.57;49.88
61914;BME280;50095;53.336;-1.488;2022-08-23T02:01:41;99472.22;;;22.38;49.75
61914;BME280;50095;53.336;-1.488;2022-08-23T02:04:09;99469.69;;;22.57;49.88
61914;BME280;50095;53.336;-1.488;2022-08-23T02:06:36;99469.47;;;22.26;49.93
61914;BME280;50095;53.336;-1.488;2022-08-23T02:09:05;99469.12;;;22.37;49.73
61914;BME280;50095;53.336;-1.488;2022-08-23T02:11:35;99467.98;;;22.32;49.82
61914;BME280;50095;53.336;-1.488;2022-08-23T02:14:06;99472.63;;;22.30;49.82
61914;BME280;50095;53.336;-1.488;2022-08-23T02:16:37;99476.80;;;22.62;49.73
61914;BME280;50095;53.336;-1.488;2022-08-23T02:19:07;99474.10;;;22.62;49.69
61914;BME280;50095;53.336;-1.488;2022-08-23T02:21:36;99473.60;;;22.78;49.79
61914;BME280;50095;53.336;-1.488;2022-08-23T02:24:05;99477.56;;;22.48;49.92
61914;BME280;50095;53.336;-1.488;2022-08-23T02:26:34;99477.89;;;22.47;49.94
61914;BME280;50095;53.336;-1.488;2022-08-23T02:29:02;99476.33;;;22.21;49.95
61914;BME280;50095;53.336;-1.488;2022-08-23T02:31:31;99472.81;;;22.45;49.96
61914;BME280;50095;53.336;-1.488;2022-08-23T02:33:59;99470.76;;;22.27;49.77
61914;BME280;50095;53.336;-1.488;2022-08-23T02:36:26;99475.32;;;22.70;49.86
61914;BME280;50095;53.336;-1.488;2022-08-23T02:38:54;99472.22;;;21.99;49.85
61914;BME280;50095;53.336;-1.488;2022-08-23T02:41:22;99468.40;;;22.50;49.79
61914;BME280;50095;53.336;-1.488;2022-08-23T02:43:50;99464.06;;;22.50;49.79
61914;BME280;50095;53.336;-1.488;2022-08-23T02:46:17;99460.50;;;22.49;49.76
61914;BME280;50095;53.336;-1.488;2022-08-23T02:48:45;99459.70;;;22.60;49.57
61914;BME280;50095;53.336;-1.488;2022-08-23T02:51:13;99463.16;;;22.22;49.76
61914;BME280;50095;53.336;-1.488;2022-08-23T02:53:40;99466.65;;;22.38;49.99
61914;BME280;50095;53.336;-1.488;2022-08-23T02:56:09;99467.04;;;22.11;49.96
61914;BME280;50095;53.336;-1.488;2022-08-23T02:58:36;99467.64;;;22.48;49.78
61914;BME280;50095;53.336;-1.488;2022-08-23T03:01:04;99466.74;;;22.58;49.57
61914;BME280;50095;53.336;-1.488;2022-08-23T03:03:32;99471.33;;;22.46;49.76
61914;BME280;50095;53.336;-1.488;2022-08-23T03:06:00;99470.87;;;22.08;50.00
61914;BME280;50095;53.336;-1.488;2022-08-23T03:08:27;99463.44;;;22.23;49.71
61914;BME280;50095;53.336;-1.488;2022-08-23T03:10:55;99461.84;;;22.50;49.66
61914;BME280;50095;53.336;-1.488;2022-08-23T03:13:23;99467.47;;;22.64;49.79
61914;BME280;50095;53.336;-1.488;2022-08-23T03:15:51;99469.48;;;22.52;49.61
61914;BME280;50095;53.336;-1.488;2022-08-23T03:18:18;99467.58;;;22.67;49.75
61914;BME280;50095;53.336;-1.488;2022-08-23T03:20:45;99466.32;;;22.18;49.76
61914;BME280;50095;53.336;-1.488;2022-08-23T03:23:13;99466.00;;;22.61;49.47
61914;BME280;50095;53.336;-1.488;2022-08-23T03:25:41;99467.04;;;22.48;49.67
61914;BME280;50095;53.336;-1.488;2022-08-23T03:28:08;99464.16;;;22.46;49.71
61914;BME280;50095;53.336;-1.488;2022-08-23T03:30:35;99457.66;;;22.50;49.64
61914;BME280;50095;53.336;-1.488;2022-08-23T03:33:03;99457.34;;;22.22;49.61
61914;BME280;50095;53.336;-1.488;2022-08-23T03:35:31;99464.02;;;22.47;49.64
61914;BME280;50095;53.336;-1.488;2022-08-23T03:37:58;99473.85;;;22.42;49.72
61914;BME280;50095;53.336;-1.488;2022-08-23T03:40:26;99478.51;;;22.35;49.86
61914;BME280;50095;53.336;-1.488;2022-08-23T03:42:53;99474.79;;;22.52;49.54
61914;BME280;50095;53.336;-1.488;2022-08-23T03:45:21;99471.38;;;22.50;49.52
61914;BME280;50095;53.336;-1.488;2022-08-23T03:47:48;99469.59;;;22.55;49.40
61914;BME280;50095;53.336;-1.488;2022-08-23T03:50:16;99464.88;;;22.41;49.65
61914;BME280;50095;53.336;-1.488;2022-08-23T03:52:44;99458.45;;;22.38;49.72
61914;BME280;50095;53.336;-1.488;2022-08-23T03:55:11;99455.80;;;22.11;49.72
61914;BME280;50095;53.336;-1.488;2022-08-23T03:57:40;99457.74;;;22.34;49.80
61914;BME280;50095;53.336;-1.488;2022-08-23T04:00:11;99469.88;;;22.35;49.77
61914;BME280;50095;53.336;-1.488;2022-08-23T04:02:38;99477.19;;;22.70;49.54
61914;BME280;50095;53.336;-1.488;2022-08-23T04:05:07;99485.12;;;22.42;49.62
61914;BME280;50095;53.336;-1.488;2022-08-23T04:07:35;99490.02;;;22.47;49.51
61914;BME280;50095;53.336;-1.488;2022-08-23T04:10:03;99504.53;;;22.60;49.69
61914;BME280;50095;53.336;-1.488;2022-08-23T04:12:31;99510.93;;;22.45;49.63
61914;BME280;50095;53.336;-1.488;2022-08-23T04:14:59;99512.19;;;22.14;49.66
61914;BME280;50095;53.336;-1.488;2022-08-23T04:17:27;99499.59;;;22.56;49.81
61914;BME280;50095;53.336;-1.488;2022-08-23T04:19:54;99483.60;;;22.43;49.65
61914;BME280;50095;53.336;-1.488;2022-08-23T04:22:22;99467.92;;;22.55;49.82
61914;BME280;50095;53.336;-1.488;2022-08-23T04:24:49;99470.66;;;22.41;49.66
61914;BME280;50095;53.336;-1.488;2022-08-23T04:27:17;99468.29;;;22.34;49.77
61914;BME280;50095;53.336;-1.488;2022-08-23T04:29:44;99474.10;;;22.44;49.58
61914;BME280;50095;53.336;-1.488;2022-08-23T04:32:12;99476.33;;;22.00;49.93
61914;BME280;50095;53.336;-1.488;2022-08-23T04:34:40;99479.15;;;22.22;49.99
61914;BME280;50095;53.336;-1.488;2022-08-23T04:37:08;99475.89;;;22.57;49.75
61914;BME280;50095;53.336;-1.488;2022-08-23T04:39:36;99480.87;;;22.49;49.92
61914;BME280;50095;53.336;-1.488;2022-08-23T04:42:03;99472.58;;;22.31;49.79
61914;BME280;50095;53.336;-1.488;2022-08-23T04:44:31;99472.92;;;22.32;49.77
61914;BME280;50095;53.336;-1.488;2022-08-23T04:46:58;99484.89;;;22.10;49.69
61914;BME280;50095;53.336;-1.488;2022-08-23T04:49:26;99485.06;;;22.28;49.85
61914;BME280;50095;53.336;-1.488;2022-08-23T04:51:53;99485.53;;;22.40;49.65
61914;BME280;50095;53.336;-1.488;2022-08-23T04:54:21;99500.10;;;22.30;49.82
61914;BME280;50095;53.336;-1.488;2022-08-23T04:56:48;99501.77;;;22.53;49.80
61914;BME280;50095;53.336;-1.488;2022-08-23T04:59:16;99504.32;;;22.57;49.70
61914;BME280;50095;53.336;-1.488;2022-08-23T05:01:45;99506.55;;;22.04;49.81
61914;BME280;50095;53.336;-1.488;2022-08-23T05:04:12;99507.48;;;22.31;49.81
61914;BME280;50095;53.336;-1.488;2022-08-23T05:06:40;99506.61;;;22.10;49.75
61914;BME280;50095;53.336;-1.488;2022-08-23T05:09:08;99508.79;;;22.26;49.96
61914;BME280;50095;53.336;-1.488;2022-08-23T05:11:35;99516.34;;;22.42;49.69
61914;BME280;50095;53.336;-1.488;2022-08-23T05:14:03;99511.86;;;22.29;49.95
61914;BME280;50095;53.336;-1.488;2022-08-23T05:16:31;99508.41;;;22.03;49.94
61914;BME280;50095;53.336;-1.488;2022-08-23T05:18:59;99513.84;;;22.30;49.96
61914;BME280;50095;53.336;-1.488;2022-08-23T05:21:26;99510.07;;;22.29;49.47
61914;BME280;50095;53.336;-1.488;2022-08-23T05:23:54;99516.59;;;22.03;49.95
61914;BME280;50095;53.336;-1.488;2022-08-23T05:26:21;99512.95;;;22.71;49.58
61914;BME280;50095;53.336;-1.488;2022-08-23T05:28:49;99514.14;;;22.33;49.82
61914;BME280;50095;53.336;-1.488;2022-08-23T05:31:21;99514.10;;;21.99;49.98
61914;BME280;50095;53.336;-1.488;2022-08-23T05:33:49;99519.00;;;22.34;49.79
61914;BME280;50095;53.336;-1.488;2022-08-23T05:36:19;99520.57;;;22.36;49.72
61914;BME280;50095;53.336;-1.488;2022-08-23T05:38:46;99526.61;;;22.28;49.35
61914;BME280;50095;53.336;-1.488;2022-08-23T05:41:15;99529.71;;;22.19;49.53
61914;BME280;50095;53.336;-1.488;2022-08-23T05:43:42;99530.37;;;22.46;49.47
61914;BME280;50095;53.336;-1.488;2022-08-23T05:46:12;99532.11;;;22.62;49.20
61914;BME280;50095;53.336;-1.488;2022-08-23T05:48:41;99532.79;;;22.23;49.38
61914;BME280;50095;53.336;-1.488;2022-08-23T05:51:11;99535.55;;;22.85;49.17
61914;BME280;50095;53.336;-1.488;2022-08-23T05:53:39;99535.02;;;22.72;48.94
61914;BME280;50095;53.336;-1.488;2022-08-23T05:56:11;99535.68;;;22.65;49.05
61914;BME280;50095;53.336;-1.488;2022-08-23T05:58:39;99527.68;;;22.43;48.93
61914;BME280;50095;53.336;-1.488;2022-08-23T06:01:07;99524.39;;;22.67;48.47
61914;BME280;50095;53.336;-1.488;2022-08-23T06:03:35;99526.07;;;22.61;48.55
61914;BME280;50095;53.336;-1.488;2022-08-23T06:06:03;99528.37;;;22.66;48.42
61914;BME280;50095;53.336;-1.488;2022-08-23T06:08:31;99532.71;;;22.44;48.40
61914;BME280;50095;53.336;-1.488;2022-08-23T06:11:00;99530.94;;;22.77;48.18
61914;BME280;50095;53.336;-1.488;2022-08-23T06:13:28;99530.64;;;23.00;47.78
61914;BME280;50095;53.336;-1.488;2022-08-23T06:15:56;99537.82;;;23.15;47.93
61914;BME280;50095;53.336;-1.488;2022-08-23T06:18:24;99538.36;;;22.38;48.04
61914;BME280;50095;53.336;-1.488;2022-08-23T06:20:59;99537.12;;;23.00;47.70
61914;BME280;50095;53.336;-1.488;2022-08-23T06:23:27;99537.37;;;23.15;47.38
61914;BME280;50095;53.336;-1.488;2022-08-23T06:25:54;99534.88;;;23.12;47.37
61914;BME280;50095;53.336;-1.488;2022-08-23T06:28:22;99532.66;;;23.23;47.16
61914;BME280;50095;53.336;-1.488;2022-08-23T06:30:53;99535.82;;;23.27;47.07
61914;BME280;50095;53.336;-1.488;2022-08-23T06:33:20;99536.67;;;23.34;46.95
61914;BME280;50095;53.336;-1.488;2022-08-23T06:35:48;99539.35;;;23.53;46.61
61914;BME280;50095;53.336;-1.488;2022-08-23T06:38:16;99534.75;;;23.41;46.37
61914;BME280;50095;53.336;-1.488;2022-08-23T06:40:43;99525.35;;;23.28;46.21
61914;BME280;50095;53.336;-1.488;2022-08-23T06:43:11;99529.43;;;23.43;45.98
61914;BME280;50095;53.336;-1.488;2022-08-23T06:45:38;99532.69;;;23.93;45.75
61914;BME280;50095;53.336;-1.488;2022-08-23T06:48:06;99532.51;;;23.48;45.76
61914;BME280;50095;53.336;-1.488;2022-08-23T06:50:33;99531.90;;;23.62;45.97
61914;BME280;50095;53.336;-1.488;2022-08-23T06:53:01;99527.43;;;23.70;45.98
61914;BME280;50095;53.336;-1.488;2022-08-23T06:55:28;99524.25;;;23.50;45.73
61914;BME280;50095;53.336;-1.488;2022-08-23T06:57:56;99518.97;;;23.92;45.37
61914;BME280;50095;53.336;-1.488;2022-08-23T07:00:23;99518.17;;;23.72;45.30
61914;BME280;50095;53.336;-1.488;2022-08-23T07:02:51;99521.11;;;23.92;45.27
61914;BME280;50095;53.336;-1.488;2022-08-23T07:05:23;99524.96;;;23.81;45.13
61914;BME280;50095;53.336;-1.488;2022-08-23T07:07:50;99522.55;;;23.60;45.75
61914;BME280;50095;53.336;-1.488;2022-08-23T07:10:18;99531.43;;;23.39;45.85
61914;BME280;50095;53.336;-1.488;2022-08-23T07:12:46;99531.45;;;23.35;45.99
61914;BME280;50095;53.336;-1.488;2022-08-23T07:15:13;99531.70;;;23.37;46.21
61914;BME280;50095;53.336;-1.488;2022-08-23T07:17:41;99533.83;;;23.41;46.52
61914;BME280;50095;53.336;-1.488;2022-08-23T07:20:09;99536.40;;;23.36;46.46
61914;BME280;50095;53.336;-1.488;2022-08-23T07:22:36;99543.46;;;23.21;46.67
61914;BME280;50095;53.336;-1.488;2022-08-23T07:25:04;99549.61;;;23.52;46.54
61914;BME280;50095;53.336;-1.488;2022-08-23T07:27:31;99550.84;;;23.22;46.64
61914;BME280;50095;53.336;-1.488;2022-08-23T07:29:59;99556.96;;;23.68;46.77
61914;BME280;50095;53.336;-1.488;2022-08-23T07:32:26;99559.15;;;23.26;46.81
61914;BME280;50095;53.336;-1.488;2022-08-23T07:34:53;99558.98;;;23.15;46.69
61914;BME280;50095;53.336;-1.488;2022-08-23T07:37:21;99556.61;;;23.58;46.43
61914;BME280;50095;53.336;-1.488;2022-08-23T07:39:48;99554.66;;;23.78;46.15
61914;BME280;50095;53.336;-1.488;2022-08-23T07:42:15;99556.22;;;23.77;46.14
61914;BME280;50095;53.336;-1.488;2022-08-23T07:44:43;99563.55;;;23.88;45.64
61914;BME280;50095;53.336;-1.488;2022-08-23T07:47:10;99566.65;;;24.00;45.65
61914;BME280;50095;53.336;-1.488;2022-08-23T07:49:38;99569.27;;;23.91;45.73
61914;BME280;50095;53.336;-1.488;2022-08-23T07:52:06;99572.00;;;24.16;45.92
61914;BME280;50095;53.336;-1.488;2022-08-23T07:54:33;99571.53;;;24.17;45.94
61914;BME280;50095;53.336;-1.488;2022-08-23T07:57:00;99573.32;;;23.91;46.40
61914;BME280;50095;53.336;-1.488;2022-08-23T07:59:28;99577.44;;;23.66;46.82
61914;BME280;50095;53.336;-1.488;2022-08-23T08:01:56;99583.33;;;23.37;47.60
61914;BME280;50095;53.336;-1.488;2022-08-23T08:04:24;99583.88;;;23.26;47.86
61914;BME280;50095;53.336;-1.488;2022-08-23T08:06:51;99587.48;;;23.18;48.00
61914;BME280;50095;53.336;-1.488;2022-08-23T08:09:19;99590.09;;;23.31;47.83
61914;BME280;50095;53.336;-1.488;2022-08-23T08:11:48;99592.17;;;23.75;47.47
61914;BME280;50095;53.336;-1.488;2022-08-23T08:14:15;99592.75;;;23.97;46.73
61914;BME280;50095;53.336;-1.488;2022-08-23T08:16:45;99591.02;;;24.18;46.32
61914;BME280;50095;53.336;-1.488;2022-08-23T08:19:15;99591.16;;;24.41;45.99
61914;BME280;50095;53.336;-1.488;2022-08-23T08:21:43;99590.18;;;24.50;45.85
61914;BME280;50095;53.336;-1.488;2022-08-23T08:24:12;99590.29;;;24.05;46.08
61914;BME280;50095;53.336;-1.488;2022-08-23T08:26:40;99591.50;;;24.33;46.07
61914;BME280;50095;53.336;-1.488;2022-08-23T08:29:09;99587.64;;;24.21;46.21
61914;BME280;50095;53.336;-1.488;2022-08-23T08:31:37;99582.24;;;24.40;45.53
61914;BME280;50095;53.336;-1.488;2022-08-23T08:34:05;99590.16;;;24.33;45.55
61914;BME280;50095;53.336;-1.488;2022-08-23T08:36:35;99595.26;;;24.51;45.28
61914;BME280;50095;53.336;-1.488;2022-08-23T08:39:06;99594.82;;;24.88;44.86
61914;BME280;50095;53.336;-1.488;2022-08-23T08:41:46;99597.67;;;24.95;44.66
61914;BME280;50095;53.336;-1.488;2022-08-23T08:44:24;99600.60;;;24.53;44.88
61914;BME280;50095;53.336;-1.488;2022-08-23T08:46:56;99598.27;;;24.57;44.89
61914;BME280;50095;53.336;-1.488;2022-08-23T08:49:32;99596.69;;;24.93;44.31
61914;BME280;50095;53.336;-1.488;2022-08-23T08:52:08;99594.93;;;25.42;43.51
61914;BME280;50095;53.336;-1.488;2022-08-23T08:54:40;99597.87;;;25.85;42.77
61914;BME280;50095;53.336;-1.488;2022-08-23T08:57:11;99598.12;;;26.05;42.30
61914;BME280;50095;53.336;-1.488;2022-08-23T08:59:47;99592.45;;;25.69;42.12
61914;BME280;50095;53.336;-1.488;2022-08-23T09:02:20;99595.36;;;26.15;41.95
61914;BME280;50095;53.336;-1.488;2022-08-23T09:04:48;99591.84;;;26.08;41.95
61914;BME280;50095;53.336;-1.488;2022-08-23T09:07:22;99588.40;;;25.65;42.41
61914;BME280;50095;53.336;-1.488;2022-08-23T09:10:27;99591.93;;;25.86;42.41
61914;BME280;50095;53.336;-1.488;2022-08-23T09:13:18;99586.69;;;25.95;42.62
61914;BME280;50095;53.336;-1.488;2022-08-23T09:15:56;99584.62;;;25.86;42.55
61914;BME280;50095;53.336;-1.488;2022-08-23T09:18:32;99588.83;;;25.90;42.35
61914;BME280;50095;53.336;-1.488;2022-08-23T09:21:04;99588.88;;;25.74;42.24
61914;BME280;50095;53.336;-1.488;2022-08-23T09:23:37;99587.08;;;25.93;41.88
61914;BME280;50095;53.336;-1.488;2022-08-23T09:26:18;99584.58;;;26.39;41.25
61914;BME280;50095;53.336;-1.488;2022-08-23T09:28:45;99585.62;;;26.46;40.78
61914;BME280;50095;53.336;-1.488;2022-08-23T09:31:35;99588.24;;;26.65;40.73
61914;BME280;50095;53.336;-1.488;2022-08-23T09:34:03;99591.64;;;26.85;40.37
61914;BME280;50095;53.336;-1.488;2022-08-23T09:36:33;99592.83;;;27.04;40.35
61914;BME280;50095;53.336;-1.488;2022-08-23T09:39:05;99593.59;;;26.93;40.76
61914;BME280;50095;53.336;-1.488;2022-08-23T09:41:35;99600.26;;;26.83;40.56
61914;BME280;50095;53.336;-1.488;2022-08-23T09:44:04;99593.26;;;27.21;40.68
61914;BME280;50095;53.336;-1.488;2022-08-23T09:46:35;99589.73;;;27.15;40.14
61914;BME280;50095;53.336;-1.488;2022-08-23T09:49:22;99579.38;;;27.07;40.36
61914;BME280;50095;53.336;-1.488;2022-08-23T09:51:51;99574.03;;;27.09;41.00
61914;BME280;50095;53.336;-1.488;2022-08-23T09:54:22;99572.78;;;26.96;41.23
61914;BME280;50095;53.336;-1.488;2022-08-23T09:56:53;99579.50;;;26.70;41.24
61914;BME280;50095;53.336;-1.488;2022-08-23T09:59:41;99578.98;;;26.87;41.07
61914;BME280;50095;53.336;-1.488;2022-08-23T10:02:15;99582.52;;;27.15;40.69
61914;BME280;50095;53.336;-1.488;2022-08-23T10:04:45;99583.78;;;27.45;40.26
61914;BME280;50095;53.336;-1.488;2022-08-23T10:07:25;99578.21;;;27.37;40.32
61914;BME280;50095;53.336;-1.488;2022-08-23T10:09:54;99571.53;;;27.07;40.84
61914;BME280;50095;53.336;-1.488;2022-08-23T10:12:39;99571.08;;;26.75;41.41
61914;BME280;50095;53.336;-1.488;2022-08-23T10:15:07;99573.61;;;26.90;41.74
61914;BME280;50095;53.336;-1.488;2022-08-23T10:17:39;99576.87;;;26.74;42.03
61914;BME280;50095;53.336;-1.488;2022-08-23T10:20:18;99574.26;;;26.45;42.03
61914;BME280;50095;53.336;-1.488;2022-08-23T10:22:54;99574.39;;;26.97;42.32
61914;BME280;50095;53.336;-1.488;2022-08-23T10:25:30;99569.75;;;26.85;42.14
61914;BME280;50095;53.336;-1.488;2022-08-23T10:28:07;99573.63;;;26.56;42.24
61914;BME280;50095;53.336;-1.488;2022-08-23T10:30:43;99575.12;;;26.93;42.43
61914;BME280;50095;53.336;-1.488;2022-08-23T10:33:19;99575.67;;;26.39;42.45
61914;BME280;50095;53.336;-1.488;2022-08-23T10:36:05;99570.15;;;26.33;42.58
61914;BME280;50095;53.336;-1.488;2022-08-23T10:38:41;99566.73;;;26.32;42.56
61914;BME280;50095;53.336;-1.488;2022-08-23T10:41:21;99569.28;;;26.54;42.24
61914;BME280;50095;53.336;-1.488;2022-08-23T10:44:01;99567.70;;;26.90;41.71
61914;BME280;50095;53.336;-1.488;2022-08-23T10:46:40;99565.62;;;27.04;41.49
61914;BME280;50095;53.336;-1.488;2022-08-23T10:49:11;99565.24;;;27.25;41.32
61914;BME280;50095;53.336;-1.488;2022-08-23T10:51:44;99568.15;;;27.46;40.92
61914;BME280;50095;53.336;-1.488;2022-08-23T10:54:17;99574.64;;;27.35;40.76
61914;BME280;50095;53.336;-1.488;2022-08-23T10:56:45;99570.28;;;27.56;40.79
61914;BME280;50095;53.336;-1.488;2022-08-23T10:59:15;99567.93;;;27.43;40.75
61914;BME280;50095;53.336;-1.488;2022-08-23T11:01:54;99564.82;;;27.73;40.35
61914;BME280;50095;53.336;-1.488;2022-08-23T11:04:28;99563.93;;;27.71;40.40
61914;BME280;50095;53.336;-1.488;2022-08-23T11:06:59;99556.00;;;27.52;40.28
61914;BME280;50095;53.336;-1.488;2022-08-23T11:09:43;99556.78;;;28.06;40.13
61914;BME280;50095;53.336;-1.488;2022-08-23T11:12:21;99561.12;;;28.06;39.75
61914;BME280;50095;53.336;-1.488;2022-08-23T11:15:11;99564.68;;;28.06;39.68
61914;BME280;50095;53.336;-1.488;2022-08-23T11:17:54;99566.80;;;27.79;39.61
61914;BME280;50095;53.336;-1.488;2022-08-23T11:23:09;99580.17;;;27.80;40.31
61914;BME280;50095;53.336;-1.488;2022-08-23T11:25:40;99580.87;;;27.47;40.57
61914;BME280;50095;53.336;-1.488;2022-08-23T11:28:50;99582.77;;;27.41;40.64
61914;BME280;50095;53.336;-1.488;2022-08-23T11:31:25;99580.47;;;27.46;40.92
61914;BME280;50095;53.336;-1.488;2022-08-23T11:34:02;99583.90;;;27.51;40.81
61914;BME280;50095;53.336;-1.488;2022-08-23T11:36:31;99593.90;;;27.70;40.57
61914;BME280;50095;53.336;-1.488;2022-08-23T11:39:03;99592.74;;;27.69;40.22
61914;BME280;50095;53.336;-1.488;2022-08-23T11:41:33;99587.01;;;27.64;40.36
61914;BME280;50095;53.336;-1.488;2022-08-23T11:44:23;99585.14;;;27.59;40.76
61914;BME280;50095;53.336;-1.488;2022-08-23T11:47:02;99578.79;;;27.39;41.07
61914;BME280;50095;53.336;-1.488;2022-08-23T11:50:45;99576.02;;;26.93;41.49
61914;BME280;50095;53.336;-1.488;2022-08-23T11:53:35;99573.25;;;27.07;41.72
61914;BME280;50095;53.336;-1.488;2022-08-23T11:56:27;99566.58;;;26.89;42.00
61914;BME280;50095;53.336;-1.488;2022-08-23T11:59:14;99565.81;;;26.89;42.01
61914;BME280;50095;53.336;-1.488;2022-08-23T12:01:45;99569.55;;;26.58;42.11
61914;BME280;50095;53.336;-1.488;2022-08-23T12:04:29;99571.91;;;27.03;42.17
61914;BME280;50095;53.336;-1.488;2022-08-23T12:06:58;99574.50;;;26.86;41.91
61914;BME280;50095;53.336;-1.488;2022-08-23T12:09:54;99575.35;;;26.92;41.59
61914;BME280;50095;53.336;-1.488;2022-08-23T12:12:31;99579.97;;;26.71;41.39
61914;BME280;50095;53.336;-1.488;2022-08-23T12:15:01;99584.23;;;27.02;41.66
61914;BME280;50095;53.336;-1.488;2022-08-23T12:18:42;99584.47;;;27.31;41.60
61914;BME280;50095;53.336;-1.488;2022-08-23T12:21:17;99588.62;;;27.14;41.45
61914;BME280;50095;53.336;-1.488;2022-08-23T12:23:50;99586.49;;;27.09;41.46
61914;BME280;50095;53.336;-1.488;2022-08-23T12:26:24;99580.86;;;27.07;41.46
61914;BME280;50095;53.336;-1.488;2022-08-23T12:28:56;99580.07;;;27.19;41.29
61914;BME280;50095;53.336;-1.488;2022-08-23T12:31:32;99578.88;;;27.41;41.04
61914;BME280;50095;53.336;-1.488;2022-08-23T12:34:12;99584.42;;;27.69;40.50
61914;BME280;50095;53.336;-1.488;2022-08-23T12:36:47;99586.04;;;27.86;40.25
61914;BME280;50095;53.336;-1.488;2022-08-23T12:39:24;99588.83;;;27.80;39.84
61914;BME280;50095;53.336;-1.488;2022-08-23T12:41:55;99589.33;;;27.78;39.86
61914;BME280;50095;53.336;-1.488;2022-08-23T12:44:26;99593.06;;;27.71;39.93
61914;BME280;50095;53.336;-1.488;2022-08-23T12:46:54;99591.79;;;27.56;40.03
61914;BME280;50095;53.336;-1.488;2022-08-23T12:49:26;99590.75;;;27.94;39.79
61914;BME280;50095;53.336;-1.488;2022-08-23T12:51:57;99583.03;;;27.94;39.38
61914;BME280;50095;53.336;-1.488;2022-08-23T12:54:34;99580.01;;;28.29;39.09
61914;BME280;50095;53.336;-1.488;2022-08-23T12:57:02;99582.57;;;27.84;38.96
61914;BME280;50095;53.336;-1.488;2022-08-23T12:59:35;99582.02;;;27.84;38.90
61914;BME280;50095;53.336;-1.488;2022-08-23T13:02:07;99582.35;;;28.07;38.87
61914;BME280;50095;53.336;-1.488;2022-08-23T13:04:38;99584.76;;;28.13;38.72
61914;BME280;50095;53.336;-1.488;2022-08-23T13:07:09;99589.05;;;28.43;38.55
61914;BME280;50095;53.336;-1.488;2022-08-23T13:09:40;99590.48;;;28.21;38.50
61914;BME280;50095;53.336;-1.488;2022-08-23T13:12:09;99592.13;;;27.80;38.57
61914;BME280;50095;53.336;-1.488;2022-08-23T13:14:43;99591.91;;;28.29;38.67